»·PEaware :: N744PW KSBA-KOXR

N744PW :: KSBA-KOXR

FLIGHT INFORMATION

Flight Status: Arrived
Operator: Privately registered:
United States
More flights under this callsign
Pilot: Anonymous 31222 (31222)
Aircraft: CESSNA 172 SKYHAWK
(C172)
More flights by this aircraft type
Origin: KSBA Santa Barbara Mun
United States
Destination: KOXR Oxnard
United States
More flights between these airports :: More routes between these airports
Route: KWANG CMA
File this flight plan on PilotEdge
Remarks: practice approach ILS 25
Altitude:
(Current/Filed)
3,000ft
Speed:
(Current/Filed)
100kts
Departed: 31-Jan-21 01:02 PM
Arrived: 31-Jan-21 01:39 PM
Distance/Time
Traveled:
34nm/0:37
Distance/Time
To Go:
Arrived

Flight Plot

Page will automatically refresh every two minutes.


Map Options




Map Legend


Flown Route
Filed Route
Departure Airport
Arrival Airport
Navaid (VOR, NDB)
Fix

Horizontal Profiles

Position Reports

Time Latitude Longitude Heading Altitude Ground
Speed
31-Jan-21 12:44 34.432572 -119.835076 71 13ft 0kts
31-Jan-21 12:45 34.432572 -119.835076 71 13ft 0kts
31-Jan-21 12:45 34.432572 -119.835076 71 13ft 0kts
31-Jan-21 12:47 34.432572 -119.835076 71 13ft 0kts
31-Jan-21 12:47 34.432572 -119.835076 71 13ft 0kts
31-Jan-21 12:48 34.432572 -119.835076 71 13ft 0kts
31-Jan-21 12:50 34.432572 -119.835076 71 13ft 0kts
31-Jan-21 12:50 34.432572 -119.835076 71 13ft 0kts
31-Jan-21 12:51 34.432572 -119.835076 71 13ft 0kts
31-Jan-21 12:52 34.432572 -119.835076 71 13ft 0kts
31-Jan-21 12:53 34.432572 -119.835076 71 13ft 0kts
31-Jan-21 12:54 34.432579 -119.835047 73 13ft 0kts
31-Jan-21 12:55 34.431900 -119.835727 249 13ft 7kts
31-Jan-21 12:56 34.431023 -119.838783 250 13ft 8kts
31-Jan-21 12:57 34.430719 -119.839749 248 13ft 0kts
31-Jan-21 12:58 34.430719 -119.839749 248 13ft 0kts
31-Jan-21 12:59 34.430719 -119.839749 248 13ft 0kts
31-Jan-21 13:00 34.430509 -119.840249 208 13ft 6kts
31-Jan-21 13:01 34.416252 -119.835833 164 492ft 73kts
31-Jan-21 13:02 34.397195 -119.829564 161 1379ft 71kts
31-Jan-21 13:03 34.378440 -119.820204 161 2183ft 74kts
31-Jan-21 13:04 34.363682 -119.804291 110 2892ft 87kts
31-Jan-21 13:05 34.356311 -119.769603 107 3134ft 123kts
31-Jan-21 13:06 34.346892 -119.727062 107 3014ft 132kts
31-Jan-21 13:07 34.337890 -119.685722 107 3007ft 124kts
31-Jan-21 13:08 34.329259 -119.645355 107 3008ft 123kts
31-Jan-21 13:09 34.320697 -119.604864 107 3008ft 124kts
31-Jan-21 13:10 34.312077 -119.563938 107 3026ft 125kts
31-Jan-21 13:11 34.303329 -119.522726 107 3037ft 128kts
31-Jan-21 13:12 34.294143 -119.480636 107 3037ft 130kts
31-Jan-21 13:13 34.284579 -119.438241 107 3037ft 131kts
31-Jan-21 13:14 34.273845 -119.395065 107 2993ft 134kts
31-Jan-21 13:15 34.262704 -119.351881 105 2991ft 134kts
31-Jan-21 13:16 34.253869 -119.308012 104 2990ft 134kts
31-Jan-21 13:17 34.247649 -119.264349 85 3143ft 125kts
31-Jan-21 13:18 34.249341 -119.223738 85 3825ft 118kts
31-Jan-21 13:19 34.250533 -119.180518 85 3993ft 137kts
31-Jan-21 13:20 34.251340 -119.134534 86 3995ft 130kts
31-Jan-21 13:21 34.254056 -119.094282 86 3988ft 113kts
31-Jan-21 13:22 34.257540 -119.056768 86 3990ft 111kts
31-Jan-21 13:23 34.261796 -119.019551 86 3990ft 112kts
31-Jan-21 13:24 34.266164 -118.982098 86 3990ft 112kts
31-Jan-21 13:25 34.270513 -118.944578 86 3990ft 113kts
31-Jan-21 13:26 34.274850 -118.906883 86 3990ft 113kts
31-Jan-21 13:27 34.272488 -118.871813 154 3991ft 111kts
31-Jan-21 13:28 34.241563 -118.865012 166 4007ft 113kts
31-Jan-21 13:29 34.216648 -118.879898 256 3771ft 145kts
31-Jan-21 13:30 34.209754 -118.929621 257 3075ft 149kts
31-Jan-21 13:31 34.202441 -118.973703 260 3008ft 125kts
31-Jan-21 13:32 34.199589 -119.017172 264 2944ft 137kts
31-Jan-21 13:33 34.200709 -119.063401 270 2265ft 137kts
31-Jan-21 13:34 34.200840 -119.107578 273 1557ft 124kts
31-Jan-21 13:35 34.200873 -119.146519 276 956ft 103kts
31-Jan-21 13:36 34.200910 -119.178577 277 415ft 84kts
31-Jan-21 13:37 34.200715 -119.203825 275 42ft 60kts
31-Jan-21 13:38 34.200220 -119.211297 204 33ft 6kts
31-Jan-21 13:39 34.199821 -119.211190 89 33ft 6kts
31-Jan-21 13:40 34.199795 -119.208043 92 36ft 12kts
31-Jan-21 13:41 34.199591 -119.205971 163 37ft 1kts
31-Jan-21 13:42 34.198971 -119.205970 182 37ft 0kts
31-Jan-21 13:43 34.198971 -119.205970 182 37ft 0kts
31-Jan-21 13:44 34.198971 -119.205970 182 37ft 0kts
31-Jan-21 13:45 34.198971 -119.205970 182 37ft 0kts
31-Jan-21 13:46 34.198971 -119.205970 182 37ft 0kts
31-Jan-21 13:47 34.198971 -119.205970 182 37ft 0kts
31-Jan-21 13:48 34.198971 -119.205970 182 37ft 0kts
31-Jan-21 13:49 34.198971 -119.205970 182 37ft 0kts
31-Jan-21 13:50 34.198971 -119.205970 182 37ft 0kts
31-Jan-21 13:51 34.199341 -119.205767 354 37ft 3kts
31-Jan-21 13:52 34.199793 -119.203819 89 39ft 13kts

Navigation Log

Ident Type
Flight plan parsing failed, navigation log unavailable